createdAt,value
2022-08-07T00:01:43.170Z,6.82
2022-08-07T00:03:53.238Z,7.22
2022-08-07T00:06:29.462Z,7.03
2022-08-07T00:09:17.134Z,7.10
2022-08-07T00:11:55.521Z,6.72
2022-08-07T00:14:25.326Z,6.05
2022-08-07T00:16:52.625Z,6.03
2022-08-07T00:19:21.393Z,6.85
2022-08-07T00:21:55.970Z,6.28
2022-08-07T00:24:24.158Z,5.65
2022-08-07T00:27:06.498Z,6.00
2022-08-07T00:29:37.149Z,6.40
2022-08-07T00:32:05.981Z,6.32
2022-08-07T00:34:35.364Z,6.63
2022-08-07T00:37:02.473Z,6.18
2022-08-07T00:39:32.073Z,6.30
2022-08-07T00:42:02.158Z,7.03
2022-08-07T00:44:33.022Z,6.47
2022-08-07T00:47:00.470Z,6.38
2022-08-07T00:50:20.813Z,6.40
2022-08-07T00:54:46.440Z,6.75
2022-08-07T00:57:13.898Z,6.65
2022-08-07T00:59:41.381Z,6.50
2022-08-07T01:02:13.925Z,6.38
2022-08-07T01:07:27.531Z,6.38
2022-08-07T01:10:06.897Z,6.85
2022-08-07T01:12:53.553Z,6.60
2022-08-07T01:16:00.470Z,6.60
2022-08-07T01:18:10.214Z,6.32
2022-08-07T01:20:57.444Z,6.72
2022-08-07T01:23:36.739Z,6.65
2022-08-07T01:26:07.942Z,7.15
2022-08-07T01:28:46.282Z,6.90
2022-08-07T01:31:19.824Z,6.75
2022-08-07T01:33:47.713Z,7.47
2022-08-07T01:36:33.455Z,6.93
2022-08-07T01:39:01.290Z,7.05
2022-08-07T01:41:31.252Z,7.72
2022-08-07T01:43:59.288Z,7.65
2022-08-07T01:46:28.418Z,7.20
2022-08-07T01:48:59.802Z,7.53
2022-08-07T01:52:02.706Z,7.15
2022-08-07T01:54:32.629Z,7.60
2022-08-07T01:57:24.104Z,7.53
2022-08-07T02:00:01.583Z,7.20
2022-08-07T02:03:12.441Z,8.07
2022-08-07T02:08:24.143Z,7.88
2022-08-07T02:10:55.239Z,7.55
2022-08-07T02:14:00.690Z,7.65
2022-08-07T02:16:16.089Z,8.00
2022-08-07T02:18:46.807Z,8.15
2022-08-07T02:21:16.223Z,7.45
2022-08-07T02:23:45.085Z,7.70
2022-08-07T02:26:32.760Z,7.75
2022-08-07T02:29:02.389Z,7.80
2022-08-07T02:31:32.762Z,8.20
2022-08-07T02:34:10.868Z,8.07
2022-08-07T02:36:41.288Z,7.10
2022-08-07T02:39:16.034Z,7.78
2022-08-07T02:41:50.684Z,8.35
2022-08-07T02:44:23.815Z,7.97
2022-08-07T02:46:55.674Z,8.20
2022-08-07T02:49:29.125Z,7.57
2022-08-07T02:52:21.391Z,8.07
2022-08-07T02:54:50.648Z,7.72
2022-08-07T02:57:22.241Z,8.15
2022-08-07T03:00:00.808Z,8.55
2022-08-07T03:02:28.499Z,8.27
2022-08-07T03:04:56.649Z,8.43
2022-08-07T03:08:05.250Z,8.30
2022-08-07T03:12:42.054Z,8.73
2022-08-07T03:15:10.905Z,8.93
2022-08-07T03:17:53.692Z,8.77
2022-08-07T03:20:21.862Z,8.45
2022-08-07T03:22:50.560Z,8.57
2022-08-07T03:25:21.082Z,8.80
2022-08-07T03:27:59.767Z,8.73
2022-08-07T03:30:37.505Z,7.57
2022-08-07T03:33:05.193Z,7.35
2022-08-07T03:35:43.847Z,8.07
2022-08-07T03:38:21.092Z,7.75
2022-08-07T03:40:57.733Z,7.50
2022-08-07T03:43:26.576Z,7.38
2022-08-07T03:45:53.707Z,7.13
2022-08-07T03:48:20.933Z,7.13
2022-08-07T03:50:55.923Z,7.63
2022-08-07T03:54:00.586Z,7.00
2022-08-07T03:56:14.905Z,7.43
2022-08-07T03:59:08.794Z,7.13
2022-08-07T04:01:30.217Z,7.50
2022-08-07T04:03:59.981Z,6.68
2022-08-07T04:06:37.045Z,6.95
2022-08-07T04:09:05.923Z,6.53
2022-08-07T04:12:23.693Z,7.05
2022-08-07T04:14:38.484Z,7.22
2022-08-07T04:17:20.376Z,7.03
2022-08-07T04:19:56.049Z,7.00
2022-08-07T04:22:27.633Z,6.30
2022-08-07T04:24:58.836Z,6.95
2022-08-07T04:27:28.491Z,6.47
2022-08-07T04:30:04.443Z,6.97
2022-08-07T04:32:37.757Z,7.10
2022-08-07T04:35:07.246Z,6.60
2022-08-07T04:37:40.465Z,6.60
2022-08-07T04:40:29.699Z,6.38
2022-08-07T04:43:02.124Z,6.80
2022-08-07T04:45:57.491Z,7.47
2022-08-07T04:49:01.568Z,7.53
2022-08-07T04:51:51.131Z,6.70
2022-08-07T04:54:22.881Z,7.63
2022-08-07T04:58:12.544Z,7.07
2022-08-07T05:00:18.750Z,7.43
2022-08-07T05:02:58.983Z,7.60
2022-08-07T05:05:53.842Z,7.20
2022-08-07T05:08:45.765Z,6.85
2022-08-07T05:11:27.881Z,7.10
2022-08-07T05:14:51.886Z,6.88
2022-08-07T05:17:11.871Z,6.45
2022-08-07T05:19:45.317Z,6.60
2022-08-07T05:22:26.500Z,6.40
2022-08-07T05:24:57.255Z,9.38
2022-08-07T05:28:02.997Z,6.90
2022-08-07T05:30:16.669Z,7.22
2022-08-07T05:32:59.793Z,6.60
2022-08-07T05:35:33.215Z,6.65
2022-08-07T05:38:08.572Z,7.00
2022-08-07T05:40:38.150Z,6.22
2022-08-07T05:43:18.717Z,6.28
2022-08-07T05:45:48.388Z,6.55
2022-08-07T05:48:15.631Z,7.82
2022-08-07T05:50:44.499Z,6.57
2022-08-07T05:54:13.413Z,6.57
2022-08-07T05:58:36.533Z,7.13
2022-08-07T06:01:06.006Z,6.63
2022-08-07T06:03:53.235Z,7.30
2022-08-07T06:06:29.996Z,6.78
2022-08-07T06:09:04.408Z,6.25
2022-08-07T06:11:33.354Z,6.30
2022-08-07T06:14:13.213Z,6.20
2022-08-07T06:16:50.279Z,6.78
2022-08-07T06:19:52.025Z,6.13
2022-08-07T06:22:14.426Z,6.18
2022-08-07T06:24:57.756Z,6.07
2022-08-07T06:27:44.490Z,6.25
2022-08-07T06:30:31.800Z,6.30
2022-08-07T06:32:59.452Z,6.75
2022-08-07T06:35:39.043Z,6.68
2022-08-07T06:38:20.552Z,5.97
2022-08-07T06:40:50.859Z,6.65
2022-08-07T06:43:22.192Z,6.32
2022-08-07T06:45:49.916Z,6.03
2022-08-07T06:48:24.879Z,6.13
2022-08-07T06:50:54.935Z,5.50
2022-08-07T06:55:27.766Z,5.15
2022-08-07T06:56:15.364Z,5.00
2022-08-07T07:00:11.473Z,5.05
2022-08-07T07:01:43.996Z,5.22
2022-08-07T07:04:32.737Z,4.40
2022-08-07T07:07:10.517Z,5.13
2022-08-07T07:09:48.217Z,4.63
2022-08-07T07:12:38.311Z,4.50
2022-08-07T07:15:26.257Z,4.72
2022-08-07T07:17:58.111Z,4.80
2022-08-07T07:20:36.229Z,4.60
2022-08-07T07:24:10.937Z,4.68
2022-08-07T07:26:35.524Z,4.88
2022-08-07T07:29:39.390Z,5.00
2022-08-07T07:31:44.445Z,4.50
2022-08-07T07:34:19.770Z,4.70
2022-08-07T07:36:52.716Z,4.18
2022-08-07T07:39:25.705Z,5.53
2022-08-07T07:42:13.342Z,4.70
2022-08-07T07:44:49.375Z,5.18
2022-08-07T07:47:23.636Z,5.03
2022-08-07T07:50:36.178Z,5.32
2022-08-07T07:52:41.727Z,5.25
2022-08-07T07:55:10.928Z,5.35
2022-08-07T07:57:51.655Z,4.57
2022-08-07T08:00:29.230Z,5.03
2022-08-07T08:03:16.567Z,4.43
2022-08-07T08:05:53.922Z,4.32
2022-08-07T08:08:35.238Z,4.60
2022-08-07T08:11:06.029Z,4.35
2022-08-07T08:13:53.050Z,4.32
2022-08-07T08:16:24.972Z,4.90
2022-08-07T08:18:55.091Z,4.60
2022-08-07T08:22:02.637Z,4.70
2022-08-07T08:24:57.153Z,4.57
2022-08-07T08:27:39.000Z,5.15
2022-08-07T08:30:17.295Z,4.80
2022-08-07T08:32:53.667Z,4.53
2022-08-07T08:38:41.188Z,4.63
2022-08-07T08:41:57.705Z,4.80
2022-08-07T08:44:29.275Z,4.78
2022-08-07T08:47:09.910Z,5.40
2022-08-07T08:50:05.714Z,4.93
2022-08-07T08:52:40.766Z,4.97
2022-08-07T08:55:54.784Z,5.10
2022-08-07T08:58:50.706Z,4.85
2022-08-07T09:01:40.212Z,5.00
2022-08-07T09:04:35.136Z,5.35
2022-08-07T09:07:24.460Z,4.80
2022-08-07T09:09:56.749Z,4.93
2022-08-07T09:12:32.885Z,5.10
2022-08-07T09:16:23.531Z,4.75
2022-08-07T09:18:20.591Z,5.45
2022-08-07T09:21:58.320Z,5.25
2022-08-07T09:27:59.614Z,4.75
2022-08-07T09:30:40.632Z,5.32
2022-08-07T09:33:41.324Z,5.30
2022-08-07T09:36:22.861Z,5.03
2022-08-07T09:53:22.574Z,5.32
2022-08-07T09:56:03.084Z,5.20
2022-08-07T09:59:14.587Z,5.13
2022-08-07T10:02:35.011Z,5.30
2022-08-07T10:05:17.430Z,5.65
2022-08-07T10:07:54.989Z,5.53
2022-08-07T10:11:16.387Z,5.50
2022-08-07T10:14:11.159Z,5.10
2022-08-07T10:16:59.505Z,5.18
2022-08-07T10:19:55.150Z,5.30
2022-08-07T10:22:46.640Z,5.60
2022-08-07T10:25:42.481Z,5.67
2022-08-07T10:28:31.855Z,6.28
2022-08-07T10:31:58.011Z,5.63
2022-08-07T10:35:08.942Z,5.88
2022-08-07T10:38:00.963Z,5.68
2022-08-07T10:40:34.185Z,5.78
2022-08-07T10:43:34.713Z,5.63
2022-08-07T10:46:09.608Z,5.53
2022-08-07T10:49:03.942Z,5.60
2022-08-07T10:52:02.339Z,5.55
2022-08-07T10:55:01.374Z,5.28
2022-08-07T10:57:58.536Z,5.82
2022-08-07T11:00:39.652Z,8.20
2022-08-07T11:03:37.774Z,6.18
2022-08-07T11:06:26.875Z,9.32
2022-08-07T11:09:11.211Z,6.33
2022-08-07T11:11:53.696Z,5.80
2022-08-07T11:14:44.915Z,9.10
2022-08-07T11:17:56.746Z,5.50
2022-08-07T11:20:47.183Z,5.30
2022-08-07T11:23:30.224Z,4.90
2022-08-07T11:26:09.121Z,5.18
2022-08-07T11:28:53.316Z,5.10
2022-08-07T11:31:30.495Z,5.10
2022-08-07T11:34:16.349Z,5.55
2022-08-07T11:37:02.763Z,4.90
2022-08-07T11:41:18.187Z,5.25
2022-08-07T11:44:17.124Z,5.15
2022-08-07T11:47:38.594Z,5.38
2022-08-07T11:50:32.195Z,5.57
2022-08-07T11:53:08.353Z,5.63
2022-08-07T11:56:09.664Z,4.90
2022-08-07T11:58:49.741Z,5.10
2022-08-07T12:01:59.083Z,4.68
2022-08-07T12:04:43.021Z,5.07
2022-08-07T12:07:27.325Z,4.65
2022-08-07T12:10:05.771Z,5.53
2022-08-07T12:13:11.592Z,4.97
2022-08-07T12:16:06.741Z,5.05
2022-08-07T12:18:45.710Z,5.05
2022-08-07T12:22:35.876Z,5.30
2022-08-07T12:24:38.045Z,5.10
2022-08-07T12:27:16.745Z,5.28
2022-08-07T12:32:34.732Z,5.18
2022-08-07T12:35:08.443Z,4.95
2022-08-07T12:38:11.258Z,4.80
2022-08-07T12:40:47.269Z,5.03
2022-08-07T12:44:01.820Z,5.00
2022-08-07T12:46:32.571Z,5.82
2022-08-07T12:49:25.810Z,5.05
2022-08-07T12:52:17.881Z,5.43
2022-08-07T12:55:00.192Z,5.32
2022-08-07T12:58:00.380Z,4.88
2022-08-07T13:00:35.851Z,4.97
2022-08-07T13:03:26.874Z,6.60
2022-08-07T13:06:29.739Z,4.57
2022-08-07T13:09:33.392Z,4.85
2022-08-07T13:12:28.976Z,4.90
2022-08-07T13:15:32.527Z,4.80
2022-08-07T13:18:26.043Z,5.03
2022-08-07T13:21:02.783Z,5.15
2022-08-07T13:26:56.049Z,5.13
2022-08-07T13:29:42.551Z,5.00
2022-08-07T13:32:42.230Z,5.30
2022-08-07T13:35:24.049Z,5.57
2022-08-07T13:38:13.365Z,5.05
2022-08-07T13:40:58.099Z,5.55
2022-08-07T13:43:27.672Z,5.93
2022-08-07T13:46:20.839Z,5.70
2022-08-07T13:48:51.985Z,5.63
2022-08-07T13:51:28.050Z,5.97
2022-08-07T13:54:16.581Z,6.40
2022-08-07T13:56:51.755Z,5.60
2022-08-07T13:59:30.619Z,6.07
2022-08-07T14:02:08.719Z,5.57
2022-08-07T14:04:50.233Z,5.65
2022-08-07T14:07:27.425Z,6.18
2022-08-07T14:10:12.538Z,6.20
2022-08-07T14:13:00.473Z,5.60
2022-08-07T14:15:39.709Z,5.70
2022-08-07T14:18:29.351Z,5.65
2022-08-07T14:21:21.081Z,6.50
2022-08-07T14:24:03.655Z,5.63
2022-08-07T14:28:09.478Z,6.32
2022-08-07T14:30:05.723Z,5.50
2022-08-07T14:32:46.104Z,6.03
2022-08-07T14:35:45.827Z,5.63
2022-08-07T14:38:09.132Z,6.10
2022-08-07T14:41:14.683Z,5.70
2022-08-07T14:44:08.126Z,5.97
2022-08-07T14:46:51.721Z,5.40
2022-08-07T14:49:57.115Z,5.93
2022-08-07T14:52:10.989Z,6.45
2022-08-07T14:54:42.222Z,5.63
2022-08-07T14:57:18.683Z,7.90
2022-08-07T15:00:04.675Z,5.90
2022-08-07T15:05:02.648Z,6.28
2022-08-07T15:07:47.533Z,6.18
2022-08-07T15:10:26.499Z,5.90
2022-08-07T15:13:00.086Z,6.40
2022-08-07T15:15:39.501Z,6.10
2022-08-07T15:21:44.138Z,6.43
2022-08-07T15:25:13.104Z,6.93
2022-08-07T15:26:55.869Z,6.70
2022-08-07T15:30:06.580Z,6.93
2022-08-07T15:32:13.246Z,7.28
2022-08-07T15:34:56.966Z,7.18
2022-08-07T15:38:04.730Z,6.55
2022-08-07T15:55:18.458Z,7.10
2022-08-07T15:57:53.036Z,6.35
2022-08-07T16:00:34.138Z,7.05
2022-08-07T16:03:21.362Z,6.32
2022-08-07T16:05:57.354Z,7.20
2022-08-07T16:08:31.704Z,6.63
2022-08-07T16:11:26.944Z,6.38
2022-08-07T16:14:04.330Z,6.30
2022-08-07T16:16:43.225Z,5.45
2022-08-07T16:19:59.582Z,5.90
2022-08-07T16:22:55.827Z,6.03
2022-08-07T16:25:54.740Z,6.35
2022-08-07T16:30:07.389Z,6.15
2022-08-07T16:31:51.589Z,5.82
2022-08-07T16:34:48.345Z,6.50
2022-08-07T16:38:06.404Z,6.13
2022-08-07T16:40:37.009Z,6.68
2022-08-07T16:44:02.398Z,5.85
2022-08-07T16:47:16.391Z,6.22
2022-08-07T16:50:36.247Z,6.40
2022-08-07T16:54:02.413Z,5.80
2022-08-07T16:56:20.630Z,5.78
2022-08-07T16:59:11.190Z,6.03
2022-08-07T17:02:04.925Z,5.75
2022-08-07T17:04:50.908Z,6.07
2022-08-07T17:07:51.487Z,5.90
2022-08-07T17:10:32.230Z,5.95
2022-08-07T17:13:40.376Z,5.65
2022-08-07T17:16:24.947Z,5.60
2022-08-07T17:18:51.666Z,6.22
2022-08-07T17:21:24.635Z,5.82
2022-08-07T17:24:37.361Z,5.90
2022-08-07T17:27:19.591Z,6.10
2022-08-07T17:30:15.025Z,6.25
2022-08-07T17:34:08.791Z,5.95
2022-08-07T17:36:02.994Z,6.50
2022-08-07T17:38:39.631Z,6.00
2022-08-07T17:42:01.943Z,5.68
2022-08-07T17:44:49.922Z,6.07
2022-08-07T17:47:55.186Z,6.07
2022-08-07T17:50:49.202Z,6.13
2022-08-07T17:53:59.882Z,6.47
2022-08-07T17:58:56.982Z,6.00
2022-08-07T18:01:36.551Z,6.90
2022-08-07T18:04:24.557Z,6.85
2022-08-07T18:07:21.026Z,6.10
2022-08-07T18:10:07.133Z,6.72
2022-08-07T18:13:11.624Z,6.88
2022-08-07T18:16:00.450Z,6.55
2022-08-07T18:21:03.562Z,6.10
2022-08-07T18:22:03.642Z,6.72
2022-08-07T18:24:51.497Z,6.35
2022-08-07T18:27:49.243Z,6.13
2022-08-07T18:30:31.661Z,6.60
2022-08-07T18:33:32.031Z,6.72
2022-08-07T18:36:35.666Z,6.82
2022-08-07T18:40:05.808Z,6.50
2022-08-07T18:42:29.259Z,7.43
2022-08-07T18:45:42.853Z,7.40
2022-08-07T18:48:08.208Z,7.22
2022-08-07T18:50:49.152Z,6.72
2022-08-07T18:53:46.346Z,9.27
2022-08-07T18:56:40.019Z,6.93
2022-08-07T18:59:59.515Z,8.10
2022-08-07T19:03:11.682Z,7.57
2022-08-07T19:06:16.900Z,7.20
2022-08-07T19:08:46.602Z,7.88
2022-08-07T19:11:37.341Z,7.88
2022-08-07T19:14:17.095Z,7.30
2022-08-07T19:17:05.933Z,7.60
2022-08-07T19:19:48.814Z,7.63
2022-08-07T19:22:31.238Z,7.03
2022-08-07T19:25:05.790Z,7.85
2022-08-07T19:28:57.515Z,7.78
2022-08-07T19:31:06.292Z,7.90
2022-08-07T19:33:18.751Z,7.45
2022-08-07T19:36:01.119Z,7.97
2022-08-07T19:38:32.213Z,7.57
2022-08-07T19:41:02.585Z,8.35
2022-08-07T19:43:48.697Z,7.75
2022-08-07T19:46:26.328Z,7.85
2022-08-07T19:49:02.986Z,7.30
2022-08-07T19:51:52.953Z,7.80
2022-08-07T19:54:31.939Z,7.90
2022-08-07T19:57:59.984Z,8.15
2022-08-07T20:00:02.163Z,8.10
2022-08-07T20:02:39.185Z,8.32
2022-08-07T20:05:08.710Z,7.78
2022-08-07T20:07:47.747Z,8.02
2022-08-07T20:10:37.815Z,6.82
2022-08-07T20:13:23.816Z,7.50
2022-08-07T20:15:57.886Z,7.32
2022-08-07T20:18:33.808Z,7.00
2022-08-07T20:21:03.930Z,6.25
2022-08-07T20:24:00.983Z,5.75
2022-08-07T20:26:45.090Z,5.03
2022-08-07T20:29:48.647Z,4.97
2022-08-07T20:32:05.729Z,5.20
2022-08-07T20:34:54.554Z,4.78
2022-08-07T20:37:29.397Z,4.43
2022-08-07T20:40:02.677Z,4.70
2022-08-07T20:42:31.891Z,4.50
2022-08-07T20:45:01.194Z,5.10
2022-08-07T20:47:56.013Z,7.50
2022-08-07T20:50:22.339Z,7.28
2022-08-07T20:52:51.863Z,7.80
2022-08-07T20:55:23.683Z,7.35
2022-08-07T20:58:03.446Z,7.90
2022-08-07T21:00:42.785Z,6.60
2022-08-07T21:03:14.129Z,6.20
2022-08-07T21:05:55.904Z,6.20
2022-08-07T21:08:34.989Z,6.05
2022-08-07T21:11:05.298Z,6.65
2022-08-07T21:13:44.055Z,6.20
2022-08-07T21:16:37.765Z,6.13
2022-08-07T21:19:32.087Z,6.57
2022-08-07T21:22:16.470Z,6.65
2022-08-07T21:25:17.883Z,6.72
2022-08-07T21:28:02.120Z,7.15
2022-08-07T21:31:31.402Z,6.60
2022-08-07T21:34:48.556Z,6.60
2022-08-07T21:37:58.095Z,6.50
2022-08-07T21:40:41.402Z,7.07
2022-08-07T21:43:17.284Z,6.53
2022-08-07T21:46:09.033Z,7.00
2022-08-07T21:48:58.833Z,6.75
2022-08-07T21:51:54.526Z,7.35
2022-08-07T21:54:33.590Z,7.13
2022-08-07T21:57:05.982Z,7.43
2022-08-07T22:00:04.947Z,6.50
2022-08-07T22:03:05.704Z,6.93
2022-08-07T22:05:44.430Z,7.07
2022-08-07T22:08:18.815Z,6.82
2022-08-07T22:10:50.291Z,6.80
2022-08-07T22:13:17.309Z,6.60
2022-08-07T22:16:38.995Z,6.85
2022-08-07T22:19:18.043Z,7.03
2022-08-07T22:22:10.815Z,7.20
2022-08-07T22:25:08.345Z,7.75
2022-08-07T22:28:06.359Z,7.95
2022-08-07T22:30:59.676Z,7.78
2022-08-07T22:33:53.210Z,7.90
2022-08-07T22:36:47.698Z,7.53
2022-08-07T22:39:52.798Z,7.55
2022-08-07T22:42:53.784Z,7.78
2022-08-07T22:46:04.308Z,7.78
2022-08-07T22:48:56.172Z,7.88
2022-08-07T22:51:36.595Z,8.27
2022-08-07T22:54:49.232Z,7.97
2022-08-07T22:57:37.599Z,8.77
2022-08-07T23:00:29.084Z,8.18
2022-08-07T23:03:23.865Z,8.48
2022-08-07T23:06:08.648Z,8.18
2022-08-07T23:10:00.827Z,8.20
2022-08-07T23:11:59.345Z,8.63
2022-08-07T23:14:50.062Z,8.43
2022-08-07T23:17:32.802Z,8.43
2022-08-07T23:20:51.675Z,8.35
2022-08-07T23:24:04.384Z,8.18
2022-08-07T23:26:39.957Z,8.32
2022-08-07T23:30:36.012Z,7.95
2022-08-07T23:34:21.642Z,8.93
2022-08-07T23:35:23.938Z,9.38
2022-08-07T23:38:01.517Z,8.25
2022-08-07T23:40:39.686Z,8.68
2022-08-07T23:43:37.702Z,8.05
2022-08-07T23:46:30.894Z,8.55
2022-08-07T23:49:50.067Z,8.55
2022-08-07T23:52:58.451Z,8.88
2022-08-07T23:55:53.826Z,8.93
2022-08-07T23:58:43.316Z,9.07
